Time;durP1;ratioP1;P1;durP2;ratioP2;P2;SDS_P1;SDS_P2;PMS_P1;PMS_P2;Temp;Humidity;BMP_temperature;BMP_pressure;BME280_temperature;BME280_humidity;BME280_pressure;Samples;Min_cycle;Max_cycle;Signal;HPM_P1;HPM_P2
2023/04/05 00:01:06;;;;;;;;;;;0.60;99.90;;;;;;5023794;28;19929;-67
2023/04/05 00:03:33;;;;;;;;;;;0.50;99.90;;;;;;5022449;28;19922;-67
2023/04/05 00:06:01;;;;;;;;;;;0.50;99.90;;;;;;5023244;28;20233;-67
2023/04/05 00:08:28;;;;;;;;;;;0.50;99.90;;;;;;5023503;28;19960;-67
2023/04/05 00:10:55;;;;;;;;;;;0.40;99.90;;;;;;5023598;28;19928;-67
2023/04/05 00:13:23;;;;;;;;;;;0.30;99.90;;;;;;5023412;28;19972;-66
2023/04/05 00:15:49;;;;;;;;;;;0.30;99.90;;;;;;5023044;28;19964;-67
2023/04/05 00:18:22;;;;;;;;;;;0.20;99.90;;;;;;5024580;28;19921;-67
2023/04/05 00:20:49;;;;;;;;;;;0.20;99.90;;;;;;5027769;28;19956;-66
2023/04/05 00:23:16;;;;;;;;;;;0.20;99.90;;;;;;5027073;28;19922;-67
2023/04/05 00:25:43;;;;;;;;;;;0.10;99.90;;;;;;5026976;28;19929;-67
2023/04/05 00:28:10;;;;;;;;;;;0.10;99.90;;;;;;5027041;28;19921;-67
2023/04/05 00:30:38;;;;;;;;;;;0.10;99.90;;;;;;5027449;28;20094;-67
2023/04/05 00:33:04;;;;;;;;;;;0.10;99.90;;;;;;5027021;28;19921;-67
2023/04/05 00:35:31;;;;;;;;;;;0.10;99.90;;;;;;5026874;28;19984;-67
2023/04/05 00:37:58;;;;;;;;;;;0.00;99.90;;;;;;5026268;28;19986;-68
2023/04/05 00:40:24;;;;;;;;;;;0.00;99.90;;;;;;5023990;28;20185;-67
2023/04/05 00:42:51;;;;;;;;;;;-0.10;99.90;;;;;;5027016;28;19921;-67
2023/04/05 00:45:18;;;;;;;;;;;0.00;99.90;;;;;;5027046;28;19927;-67
2023/04/05 00:47:46;;;;;;;;;;;-0.10;99.90;;;;;;5026468;28;20161;-67
2023/04/05 00:50:12;;;;;;;;;;;-0.20;99.90;;;;;;5026909;28;19927;-67
2023/04/05 00:52:40;;;;;;;;;;;-0.30;99.90;;;;;;5026918;28;20264;-67
2023/04/05 00:55:07;;;;;;;;;;;-0.20;99.90;;;;;;5026870;28;20201;-67
2023/04/05 00:57:37;;;;;;;;;;;-0.20;99.90;;;;;;5026350;28;19921;-67
2023/04/05 01:00:08;;;;;;;;;;;-0.20;99.90;;;;;;5026960;28;19925;-67
2023/04/05 01:02:38;;;;;;;;;;;-0.30;99.90;;;;;;5027003;28;19965;-67
2023/04/05 01:05:12;;;;;;;;;;;-0.30;99.90;;;;;;5024649;28;19976;-67
2023/04/05 01:07:42;;;;;;;;;;;-0.40;99.90;;;;;;5026186;28;20202;-67
2023/04/05 01:10:10;;;;;;;;;;;-0.40;99.90;;;;;;5026533;28;19988;-67
2023/04/05 01:12:37;;;;;;;;;;;-0.40;99.90;;;;;;5026714;28;19922;-67
2023/04/05 01:15:04;;;;;;;;;;;-0.40;99.90;;;;;;5026580;28;19922;-67
2023/04/05 01:17:35;;;;;;;;;;;-0.40;99.90;;;;;;5025736;28;19921;-67
2023/04/05 01:20:09;;;;;;;;;;;-0.40;99.90;;;;;;5026233;28;20145;-67
2023/04/05 01:22:53;;;;;;;;;;;-0.40;99.90;;;;;;5026278;28;19927;-67
2023/04/05 01:25:29;;;;;;;;;;;-0.40;99.90;;;;;;5023228;28;19928;-66
2023/04/05 01:28:05;;;;;;;;;;;-0.40;99.90;;;;;;5025727;28;19925;-67
2023/04/05 01:30:35;;;;;;;;;;;-0.40;99.90;;;;;;5025159;28;20113;-67
2023/04/05 01:33:06;;;;;;;;;;;-0.50;99.90;;;;;;5026156;28;20129;-67
2023/04/05 01:35:37;;;;;;;;;;;-0.60;99.90;;;;;;5026084;28;19957;-67
2023/04/05 01:38:05;;;;;;;;;;;-0.60;99.90;;;;;;5025759;28;20200;-67
2023/04/05 01:40:32;;;;;;;;;;;-0.60;99.90;;;;;;5023131;28;19975;-67
2023/04/05 01:43:01;;;;;;;;;;;-0.60;99.90;;;;;;5025747;28;19952;-67
2023/04/05 01:45:27;;;;;;;;;;;-0.60;99.90;;;;;;5025739;28;19964;-67
2023/04/05 01:47:55;;;;;;;;;;;-0.60;99.90;;;;;;5024966;28;20213;-67
2023/04/05 01:50:22;;;;;;;;;;;-0.70;99.90;;;;;;5025889;28;19921;-67
2023/04/05 01:52:49;;;;;;;;;;;-0.70;99.90;;;;;;5025469;28;19989;-67
2023/04/05 01:55:15;;;;;;;;;;;-0.70;99.90;;;;;;5025274;28;19929;-67
2023/04/05 01:57:42;;;;;;;;;;;-0.70;99.90;;;;;;5025024;28;20256;-67
2023/04/05 02:00:09;;;;;;;;;;;-0.80;99.90;;;;;;5025551;28;19984;-67
2023/04/05 02:02:36;;;;;;;;;;;-0.90;99.90;;;;;;5025600;28;19922;-66
2023/04/05 02:05:04;;;;;;;;;;;-0.90;99.90;;;;;;5025042;28;19953;-69
2023/04/05 02:07:30;;;;;;;;;;;-0.90;99.90;;;;;;5025034;28;19921;-68
2023/04/05 02:09:57;;;;;;;;;;;-0.90;99.90;;;;;;5025492;28;19984;-67
2023/04/05 02:12:24;;;;;;;;;;;-0.90;99.90;;;;;;5025179;28;19921;-67
2023/04/05 02:14:51;;;;;;;;;;;-0.90;99.90;;;;;;5025204;28;19921;-67
2023/04/05 02:17:18;;;;;;;;;;;-1.00;99.90;;;;;;5024742;28;20152;-66
2023/04/05 02:19:45;;;;;;;;;;;-1.10;99.90;;;;;;5025249;28;19927;-67
2023/04/05 02:22:13;;;;;;;;;;;-1.10;99.90;;;;;;5025190;28;20170;-66
2023/04/05 02:24:40;;;;;;;;;;;-1.10;99.90;;;;;;5025132;28;19944;-67
2023/04/05 02:27:07;;;;;;;;;;;-1.10;99.90;;;;;;5024652;28;20229;-67
2023/04/05 02:29:33;;;;;;;;;;;-1.10;99.90;;;;;;5025143;28;20149;-67
2023/04/05 02:32:00;;;;;;;;;;;-1.10;99.90;;;;;;5024785;28;20240;-66
2023/04/05 02:34:27;;;;;;;;;;;-1.20;99.90;;;;;;5024730;28;19921;-68
2023/04/05 02:36:54;;;;;;;;;;;-1.20;99.90;;;;;;5024172;28;20001;-67
2023/04/05 02:39:22;;;;;;;;;;;-1.20;99.90;;;;;;5024645;28;19922;-67
2023/04/05 02:41:49;;;;;;;;;;;-1.20;99.90;;;;;;5022114;28;19922;-66
2023/04/05 02:44:15;;;;;;;;;;;-1.20;99.90;;;;;;5024834;28;19928;-67
2023/04/05 02:46:43;;;;;;;;;;;-1.20;99.90;;;;;;5021681;28;19972;-66
2023/04/05 02:49:10;;;;;;;;;;;-1.20;99.90;;;;;;5024389;28;19985;-67
2023/04/05 02:51:37;;;;;;;;;;;-1.20;99.90;;;;;;5024777;28;19921;-67
2023/04/05 02:54:03;;;;;;;;;;;-1.20;99.90;;;;;;5024146;28;19968;-67
2023/04/05 02:56:31;;;;;;;;;;;-1.20;99.90;;;;;;5023407;28;19927;-67
2023/04/05 02:58:58;;;;;;;;;;;-1.30;99.90;;;;;;5024905;28;19921;-67
2023/04/05 03:01:25;;;;;;;;;;;-1.30;99.90;;;;;;5024303;28;19984;-67
2023/04/05 03:03:52;;;;;;;;;;;-1.30;99.90;;;;;;5024181;28;20209;-67
2023/04/05 03:06:19;;;;;;;;;;;-1.30;99.90;;;;;;5023643;28;19992;-67
2023/04/05 03:08:48;;;;;;;;;;;-1.30;99.90;;;;;;5024557;28;20301;-67
2023/04/05 03:11:14;;;;;;;;;;;-1.40;99.90;;;;;;5024230;28;20272;-67
2023/04/05 03:13:42;;;;;;;;;;;-1.40;99.90;;;;;;5024125;28;19959;-67
2023/04/05 03:16:09;;;;;;;;;;;-1.50;99.90;;;;;;5023632;28;20289;-67
2023/04/05 03:18:37;;;;;;;;;;;-1.50;99.90;;;;;;5021278;28;19925;-66
2023/04/05 03:21:04;;;;;;;;;;;-1.50;99.90;;;;;;5024285;28;19921;-66
2023/04/05 03:23:32;;;;;;;;;;;-1.60;99.90;;;;;;5024251;28;19971;-67
2023/04/05 03:25:59;;;;;;;;;;;-1.60;99.90;;;;;;5023779;28;19921;-68
2023/04/05 03:28:26;;;;;;;;;;;-1.60;99.90;;;;;;5023397;28;19949;-67
2023/04/05 03:30:54;;;;;;;;;;;-1.60;99.90;;;;;;5024003;28;19921;-67
2023/04/05 03:33:21;;;;;;;;;;;-1.60;99.90;;;;;;5023695;28;19943;-67
2023/04/05 03:35:47;;;;;;;;;;;-1.60;99.90;;;;;;5023247;28;19921;-67
2023/04/05 03:38:14;;;;;;;;;;;-1.70;99.90;;;;;;5023475;28;19921;-67
2023/04/05 03:40:41;;;;;;;;;;;-1.70;99.90;;;;;;5022848;28;20281;-67
2023/04/05 03:43:07;;;;;;;;;;;-1.60;99.90;;;;;;5023731;28;19957;-67
2023/04/05 03:45:34;;;;;;;;;;;-1.70;99.90;;;;;;5023442;28;19921;-67
2023/04/05 03:48:03;;;;;;;;;;;-1.70;99.90;;;;;;5023119;28;20261;-67
2023/04/05 03:50:29;;;;;;;;;;;-1.70;99.90;;;;;;5023559;28;19980;-67
2023/04/05 03:52:56;;;;;;;;;;;-1.80;99.90;;;;;;5023215;28;19925;-67
2023/04/05 03:55:22;;;;;;;;;;;-1.80;99.90;;;;;;5023562;28;19984;-66
2023/04/05 03:57:49;;;;;;;;;;;-1.80;99.90;;;;;;5022713;28;20205;-68
2023/04/05 04:00:16;;;;;;;;;;;-1.80;99.90;;;;;;5023709;28;19964;-67
2023/04/05 04:02:43;;;;;;;;;;;-1.80;99.90;;;;;;5023345;28;19929;-66
2023/04/05 04:05:11;;;;;;;;;;;-1.90;99.90;;;;;;5023140;28;19921;-67
2023/04/05 04:07:38;;;;;;;;;;;-1.80;99.90;;;;;;5022999;28;19925;-67
2023/04/05 04:10:05;;;;;;;;;;;-1.90;99.90;;;;;;5023056;28;19964;-67
2023/04/05 04:12:31;;;;;;;;;;;-1.90;99.90;;;;;;5023175;28;20216;-67
2023/04/05 04:14:58;;;;;;;;;;;-1.90;99.90;;;;;;5023361;28;19996;-66
2023/04/05 04:17:28;;;;;;;;;;;-2.00;99.90;;;;;;5022511;28;19922;-67
2023/04/05 04:19:54;;;;;;;;;;;-2.00;99.90;;;;;;5023570;28;19953;-67
2023/04/05 04:22:25;;;;;;;;;;;-2.00;99.90;;;;;;5023543;28;19921;-67
2023/04/05 04:24:52;;;;;;;;;;;-2.00;99.90;;;;;;5023228;28;19922;-67
2023/04/05 04:27:19;;;;;;;;;;;-2.00;99.90;;;;;;5022698;28;19921;-67
2023/04/05 04:29:46;;;;;;;;;;;-2.00;99.90;;;;;;5023423;28;19980;-67
2023/04/05 04:32:14;;;;;;;;;;;-2.00;99.90;;;;;;5023452;28;19989;-67
2023/04/05 04:34:43;;;;;;;;;;;-2.10;99.90;;;;;;5041523;28;19921;-66
2023/04/05 04:37:16;;;;;;;;;;;-2.10;99.90;;;;;;5042583;28;19925;-67
2023/04/05 04:39:46;;;;;;;;;;;-2.10;99.90;;;;;;5031919;28;19921;-66
2023/04/05 04:42:12;;;;;;;;;;;-2.10;99.90;;;;;;5023365;28;20113;-68
2023/04/05 04:44:41;;;;;;;;;;;-2.20;99.90;;;;;;5022961;28;19921;-67
2023/04/05 04:47:12;;;;;;;;;;;-2.20;99.90;;;;;;5022296;28;20292;-67
2023/04/05 04:49:39;;;;;;;;;;;-2.20;99.90;;;;;;5023042;28;19973;-66
2023/04/05 04:52:05;;;;;;;;;;;-2.20;99.90;;;;;;5022975;28;19922;-67
2023/04/05 04:54:33;;;;;;;;;;;-2.20;99.90;;;;;;5022815;28;19984;-67
2023/04/05 04:57:01;;;;;;;;;;;-2.20;99.90;;;;;;5022178;28;19921;-67
2023/04/05 04:59:27;;;;;;;;;;;-2.20;99.90;;;;;;5023183;28;19928;-67
2023/04/05 05:01:54;;;;;;;;;;;-2.20;99.90;;;;;;5022965;28;20284;-66
2023/04/05 05:04:22;;;;;;;;;;;-2.20;99.90;;;;;;5021037;28;19929;-67
2023/04/05 05:06:50;;;;;;;;;;;-2.30;99.90;;;;;;5025578;28;19921;-67
2023/04/05 05:09:17;;;;;;;;;;;-2.20;99.90;;;;;;5023232;28;19928;-67
2023/04/05 05:11:43;;;;;;;;;;;-2.30;99.90;;;;;;5026493;28;19922;-67
2023/04/05 05:14:11;;;;;;;;;;;-2.20;99.90;;;;;;5026218;28;19964;-67
2023/04/05 05:16:38;;;;;;;;;;;-2.20;99.90;;;;;;5025699;28;19988;-67
2023/04/05 05:19:05;;;;;;;;;;;-2.20;99.90;;;;;;5026358;28;20248;-67
2023/04/05 05:21:31;;;;;;;;;;;-2.30;99.90;;;;;;5026037;28;20268;-67
2023/04/05 05:23:58;;;;;;;;;;;-2.30;99.90;;;;;;5025893;28;19989;-67
2023/04/05 05:26:25;;;;;;;;;;;-2.40;99.90;;;;;;5025465;28;19948;-67
2023/04/05 05:28:51;;;;;;;;;;;-2.40;99.90;;;;;;5026188;28;19922;-68
2023/04/05 05:31:19;;;;;;;;;;;-2.40;99.90;;;;;;5026257;28;19984;-68
2023/04/05 05:33:48;;;;;;;;;;;-2.30;99.90;;;;;;5025942;28;19985;-67
2023/04/05 05:36:15;;;;;;;;;;;-2.30;99.90;;;;;;5024783;28;19928;-67
2023/04/05 05:38:42;;;;;;;;;;;-2.20;99.90;;;;;;5025952;28;19921;-69
2023/04/05 05:41:09;;;;;;;;;;;-2.30;99.90;;;;;;5026102;28;19976;-69
2023/04/05 05:43:36;;;;;;;;;;;-2.20;99.90;;;;;;5026003;28;19997;-68
2023/04/05 05:46:02;;;;;;;;;;;-2.10;99.90;;;;;;5025539;28;19928;-68
2023/04/05 05:48:32;;;;;;;;;;;-2.10;99.90;;;;;;5022403;28;19960;-69
2023/04/05 05:51:01;;;;;;;;;;;-2.00;99.90;;;;;;5025344;28;20125;-68
2023/04/05 05:53:28;;;;;;;;;;;-2.00;99.90;;;;;;5026026;28;19925;-67
2023/04/05 05:55:55;;;;;;;;;;;-1.90;99.90;;;;;;5025218;28;20004;-69
2023/04/05 05:58:22;;;;;;;;;;;-1.90;99.90;;;;;;5025304;28;20117;-69
2023/04/05 06:00:50;;;;;;;;;;;-1.90;99.90;;;;;;5025562;28;19928;-67
2023/04/05 06:03:17;;;;;;;;;;;-1.90;99.90;;;;;;5025985;28;19960;-67
2023/04/05 06:05:51;;;;;;;;;;;-1.90;99.90;;;;;;5024856;28;19929;-67
2023/04/05 06:08:18;;;;;;;;;;;-1.90;99.90;;;;;;5025026;28;19964;-67
2023/04/05 06:10:45;;;;;;;;;;;-1.80;99.90;;;;;;5025637;28;19984;-67
2023/04/05 06:13:11;;;;;;;;;;;-1.70;99.90;;;;;;5025653;28;19921;-67
2023/04/05 06:15:38;;;;;;;;;;;-1.60;99.90;;;;;;5024498;28;19992;-68
2023/04/05 06:18:05;;;;;;;;;;;-1.60;99.90;;;;;;5022178;28;20202;-67
2023/04/05 06:20:31;;;;;;;;;;;-1.50;99.90;;;;;;5025291;28;19921;-68
2023/04/05 06:22:59;;;;;;;;;;;-1.40;99.90;;;;;;5025096;28;20272;-68
2023/04/05 06:25:26;;;;;;;;;;;-1.40;99.90;;;;;;5024841;28;20229;-68
2023/04/05 06:27:53;;;;;;;;;;;-1.30;99.90;;;;;;5024530;28;20129;-67
2023/04/05 06:30:19;;;;;;;;;;;-1.30;99.90;;;;;;5024984;28;19957;-66
2023/04/05 06:32:47;;;;;;;;;;;-1.20;99.90;;;;;;5024964;28;19936;-67
2023/04/05 06:35:13;;;;;;;;;;;-1.10;99.90;;;;;;5024799;28;19921;-67
2023/04/05 06:37:40;;;;;;;;;;;-1.00;99.90;;;;;;5024188;28;19980;-67
2023/04/05 06:40:09;;;;;;;;;;;-1.00;99.90;;;;;;5025124;28;19925;-67
2023/04/05 06:42:36;;;;;;;;;;;-0.90;99.90;;;;;;5024619;28;19928;-69
2023/04/05 06:45:03;;;;;;;;;;;-0.80;99.90;;;;;;5024319;28;19922;-66
2023/04/05 06:47:29;;;;;;;;;;;-0.70;99.90;;;;;;5023679;28;19964;-66
2023/04/05 06:49:56;;;;;;;;;;;-0.70;99.90;;;;;;5024748;28;19921;-66
2023/04/05 06:52:22;;;;;;;;;;;-0.60;99.90;;;;;;5024425;28;19956;-67
2023/04/05 06:54:49;;;;;;;;;;;-0.50;99.90;;;;;;5024608;28;19992;-67
2023/04/05 06:57:17;;;;;;;;;;;-0.40;99.90;;;;;;5023935;28;20001;-66
2023/04/05 06:59:44;;;;;;;;;;;-0.30;99.90;;;;;;5024311;28;19984;-67
2023/04/05 07:02:11;;;;;;;;;;;-0.20;99.90;;;;;;5024240;28;19922;-67
2023/04/05 07:04:38;;;;;;;;;;;-0.10;99.90;;;;;;5024216;28;19921;-67
2023/04/05 07:07:05;;;;;;;;;;;0.00;99.90;;;;;;5028029;28;19921;-66
2023/04/05 07:09:33;;;;;;;;;;;0.20;99.90;;;;;;5043888;28;19927;-66
2023/04/05 07:12:00;;;;;;;;;;;0.30;99.90;;;;;;5044136;28;19921;-67
2023/04/05 07:14:29;;;;;;;;;;;0.50;99.90;;;;;;5043839;28;19921;-66
2023/04/05 07:16:55;;;;;;;;;;;0.50;99.90;;;;;;5029481;28;19940;-66
2023/04/05 07:19:22;;;;;;;;;;;0.60;99.90;;;;;;5024155;28;19937;-66
2023/04/05 07:21:49;;;;;;;;;;;0.70;99.90;;;;;;5021438;28;20284;-67
2023/04/05 07:24:15;;;;;;;;;;;0.80;99.90;;;;;;5023939;28;19928;-66
2023/04/05 07:26:42;;;;;;;;;;;0.80;99.90;;;;;;5023184;28;19993;-67
2023/04/05 07:29:09;;;;;;;;;;;0.90;99.90;;;;;;5023142;28;19955;-67
2023/04/05 07:31:37;;;;;;;;;;;1.00;99.90;;;;;;5023986;28;19948;-67
2023/04/05 07:34:04;;;;;;;;;;;1.10;99.90;;;;;;5023618;28;19988;-67
2023/04/05 07:36:31;;;;;;;;;;;1.20;99.90;;;;;;5022868;28;20209;-66
2023/04/05 07:38:57;;;;;;;;;;;1.20;99.90;;;;;;5023822;28;20000;-67
2023/04/05 07:41:26;;;;;;;;;;;1.30;99.90;;;;;;5021156;28;19944;-67
2023/04/05 07:43:53;;;;;;;;;;;1.40;99.90;;;;;;5023562;28;19922;-66
2023/04/05 07:46:21;;;;;;;;;;;1.40;99.90;;;;;;5023241;28;19984;-66
2023/04/05 07:48:49;;;;;;;;;;;1.50;99.90;;;;;;5023943;28;19925;-66
2023/04/05 07:51:15;;;;;;;;;;;1.50;99.90;;;;;;5003945;28;19921;-67
2023/04/05 07:53:42;;;;;;;;;;;1.70;99.90;;;;;;5004147;28;19929;-66
2023/04/05 07:56:10;;;;;;;;;;;1.80;99.90;;;;;;5003345;28;19928;-67
2023/04/05 07:58:39;;;;;;;;;;;1.80;99.90;;;;;;5003846;28;19921;-67
2023/04/05 08:01:05;;;;;;;;;;;1.90;99.90;;;;;;5004055;28;20149;-66
2023/04/05 08:03:33;;;;;;;;;;;2.00;99.90;;;;;;5003819;28;19984;-66
2023/04/05 08:06:19;;;;;;;;;;;2.10;99.90;;;;;;5000967;28;19949;-67
2023/04/05 08:08:47;;;;;;;;;;;2.10;99.90;;;;;;5003885;28;20101;-67
2023/04/05 08:11:14;;;;;;;;;;;2.20;99.90;;;;;;5003673;28;19928;-67
2023/04/05 08:13:41;;;;;;;;;;;2.30;99.90;;;;;;5003479;28;19926;-66
2023/04/05 08:16:08;;;;;;;;;;;2.40;99.90;;;;;;5003433;28;19922;-66
2023/04/05 08:18:35;;;;;;;;;;;2.40;99.90;;;;;;5015058;28;20171;-66
2023/04/05 08:21:01;;;;;;;;;;;2.50;99.90;;;;;;5023328;28;19921;-66
2023/04/05 08:23:28;;;;;;;;;;;2.60;99.90;;;;;;5021424;28;19957;-66
2023/04/05 08:25:56;;;;;;;;;;;2.70;99.90;;;;;;5022140;28;19929;-67
2023/04/05 08:28:22;;;;;;;;;;;2.70;99.90;;;;;;5022927;28;19928;-67
2023/04/05 08:30:52;;;;;;;;;;;2.70;99.90;;;;;;5023364;28;20260;-67
2023/04/05 08:33:19;;;;;;;;;;;2.80;99.90;;;;;;5023314;28;19996;-67
2023/04/05 08:35:47;;;;;;;;;;;2.80;99.90;;;;;;5020333;28;19996;-66
2023/04/05 08:38:13;;;;;;;;;;;2.90;99.90;;;;;;5023184;28;19984;-66
2023/04/05 08:40:42;;;;;;;;;;;3.00;99.90;;;;;;5026608;28;19955;-67
2023/04/05 08:43:12;;;;;;;;;;;3.00;99.90;;;;;;5027280;28;19993;-67
2023/04/05 08:45:44;;;;;;;;;;;3.10;99.90;;;;;;5026629;28;19960;-66
2023/04/05 08:48:11;;;;;;;;;;;3.20;99.90;;;;;;5026890;28;19956;-66
2023/04/05 08:50:37;;;;;;;;;;;3.20;99.90;;;;;;5027063;28;19928;-66
2023/04/05 08:53:04;;;;;;;;;;;3.30;99.90;;;;;;5027156;28;19989;-67
2023/04/05 08:55:31;;;;;;;;;;;3.40;99.90;;;;;;5026263;28;19921;-67
2023/04/05 08:57:58;;;;;;;;;;;3.50;99.90;;;;;;5024611;28;19984;-67
2023/04/05 09:00:27;;;;;;;;;;;3.60;99.90;;;;;;5025308;28;19952;-67
2023/04/05 09:02:56;;;;;;;;;;;3.60;99.90;;;;;;5026763;28;19960;-67
2023/04/05 09:05:23;;;;;;;;;;;3.70;99.90;;;;;;5026785;28;19921;-67
2023/04/05 09:07:50;;;;;;;;;;;3.70;99.90;;;;;;5026256;28;19922;-66
2023/04/05 09:10:18;;;;;;;;;;;3.70;99.90;;;;;;5026503;28;19921;-67
2023/04/05 09:12:46;;;;;;;;;;;3.80;99.90;;;;;;5023565;28;19984;-67
2023/04/05 09:15:14;;;;;;;;;;;3.80;99.90;;;;;;5026040;28;19932;-67
2023/04/05 09:17:48;;;;;;;;;;;4.00;99.90;;;;;;5022601;28;19921;-67
2023/04/05 09:20:15;;;;;;;;;;;4.10;99.90;;;;;;5026421;28;19944;-66
2023/04/05 09:22:42;;;;;;;;;;;4.20;99.90;;;;;;5026305;28;19957;-66
2023/04/05 09:25:09;;;;;;;;;;;4.20;99.90;;;;;;5026273;28;20000;-67
2023/04/05 09:27:36;;;;;;;;;;;4.30;99.90;;;;;;5025756;28;19970;-67
2023/04/05 09:30:20;;;;;;;;;;;4.30;99.90;;;;;;5026364;28;19921;-67
2023/04/05 09:32:50;;;;;;;;;;;4.20;99.90;;;;;;5026016;28;20244;-67
2023/04/05 09:35:17;;;;;;;;;;;4.20;99.90;;;;;;5025358;28;20166;-67
2023/04/05 09:37:51;;;;;;;;;;;4.20;99.90;;;;;;5025068;28;20229;-67
2023/04/05 09:40:18;;;;;;;;;;;4.30;99.90;;;;;;5026092;28;19985;-66
2023/04/05 09:42:46;;;;;;;;;;;4.20;99.90;;;;;;5024973;28;19921;-65
2023/04/05 09:45:12;;;;;;;;;;;4.30;99.90;;;;;;5024860;28;19960;-65
2023/04/05 09:47:40;;;;;;;;;;;4.30;99.90;;;;;;5025259;28;19922;-67
2023/04/05 09:50:19;;;;;;;;;;;4.30;99.90;;;;;;5025659;28;19921;-66
2023/04/05 09:52:47;;;;;;;;;;;4.40;99.90;;;;;;5006181;28;19929;-66
2023/04/05 09:55:13;;;;;;;;;;;4.40;99.90;;;;;;5005965;28;19960;-67
2023/04/05 09:57:42;;;;;;;;;;;4.50;99.90;;;;;;5005649;28;20245;-67
2023/04/05 10:00:17;;;;;;;;;;;4.50;99.90;;;;;;5006253;28;19922;-66
2023/04/05 10:02:46;;;;;;;;;;;4.60;99.90;;;;;;5006253;28;20170;-67
2023/04/05 10:05:14;;;;;;;;;;;4.70;99.90;;;;;;5018430;28;19960;-67
2023/04/05 10:07:42;;;;;;;;;;;4.80;99.90;;;;;;5025265;28;19921;-66
2023/04/05 10:10:11;;;;;;;;;;;4.80;99.90;;;;;;5025360;28;20013;-66
2023/04/05 10:12:38;;;;;;;;;;;4.90;99.90;;;;;;5025288;28;19933;-67
2023/04/05 10:15:05;;;;;;;;;;;4.80;99.90;;;;;;5025684;28;19953;-67
2023/04/05 10:17:37;;;;;;;;;;;4.90;99.90;;;;;;5021988;28;19921;-67
2023/04/05 10:20:09;;;;;;;;;;;4.90;99.90;;;;;;5022658;28;19997;-66
2023/04/05 10:22:37;;;;;;;;;;;5.00;99.90;;;;;;5025239;28;20180;-67
2023/04/05 10:25:12;;;;;;;;;;;5.10;99.90;;;;;;5024745;28;19968;-67
2023/04/05 10:27:41;;;;;;;;;;;5.10;99.90;;;;;;5024436;28;19928;-67
2023/04/05 10:30:08;;;;;;;;;;;5.20;99.90;;;;;;5024142;28;20209;-67
2023/04/05 10:32:41;;;;;;;;;;;5.10;99.90;;;;;;5025157;28;19929;-67
2023/04/05 10:35:09;;;;;;;;;;;5.20;99.90;;;;;;5025051;28;19925;-67
2023/04/05 10:37:41;;;;;;;;;;;5.40;99.90;;;;;;5024070;28;19921;-67
2023/04/05 10:40:10;;;;;;;;;;;5.60;99.90;;;;;;5024906;28;19985;-67
2023/04/05 10:42:40;;;;;;;;;;;5.80;99.90;;;;;;5024546;28;19922;-67
2023/04/05 10:45:10;;;;;;;;;;;5.90;99.90;;;;;;5024919;28;19988;-67
2023/04/05 10:47:38;;;;;;;;;;;5.80;99.90;;;;;;5024329;28;20205;-67
2023/04/05 10:50:08;;;;;;;;;;;5.80;99.90;;;;;;5024752;28;19996;-67
2023/04/05 10:52:36;;;;;;;;;;;5.70;99.90;;;;;;5024674;28;19948;-67
2023/04/05 10:55:03;;;;;;;;;;;5.60;99.90;;;;;;5024351;28;19921;-66
2023/04/05 10:57:31;;;;;;;;;;;5.80;99.90;;;;;;5023849;28;19975;-67
2023/04/05 10:59:59;;;;;;;;;;;6.00;99.90;;;;;;5024629;28;19921;-67
2023/04/05 11:02:28;;;;;;;;;;;6.00;99.90;;;;;;5024393;28;19921;-67
2023/04/05 11:04:55;;;;;;;;;;;6.20;99.90;;;;;;5024270;28;19992;-67
2023/04/05 11:07:22;;;;;;;;;;;6.30;99.90;;;;;;5022943;28;20235;-67
2023/04/05 11:09:51;;;;;;;;;;;6.40;99.90;;;;;;5024302;28;19921;-67
2023/04/05 11:12:17;;;;;;;;;;;6.40;99.90;;;;;;5024293;28;19925;-67
2023/04/05 11:14:45;;;;;;;;;;;6.40;99.90;;;;;;5023142;28;19921;-67
2023/04/05 11:17:25;;;;;;;;;;;6.60;99.90;;;;;;5020494;28;19930;-67
2023/04/05 11:19:52;;;;;;;;;;;6.80;99.90;;;;;;5023688;28;19921;-67
2023/04/05 11:22:25;;;;;;;;;;;7.10;99.90;;;;;;5023058;28;19957;-67
2023/04/05 11:24:55;;;;;;;;;;;7.40;99.90;;;;;;5023995;28;19943;-67
2023/04/05 11:27:25;;;;;;;;;;;7.70;99.90;;;;;;5015393;28;19929;-67
2023/04/05 11:29:53;;;;;;;;;;;8.00;99.90;;;;;;5024179;28;19957;-67
2023/04/05 11:32:21;;;;;;;;;;;8.10;99.90;;;;;;5022123;28;19964;-68
2023/04/05 11:34:58;;;;;;;;;;;8.10;99.90;;;;;;5023432;28;19985;-67
2023/04/05 11:37:40;;;;;;;;;;;8.00;99.90;;;;;;5022674;28;19961;-67
2023/04/05 11:40:25;;;;;;;;;;;7.90;99.90;;;;;;5023238;28;20261;-67
2023/04/05 11:42:58;;;;;;;;;;;7.60;99.90;;;;;;5020289;28;20212;-67
2023/04/05 11:45:26;;;;;;;;;;;7.50;99.90;;;;;;5020791;28;19928;-68
2023/04/05 11:47:52;;;;;;;;;;;7.20;99.90;;;;;;5020598;28;19922;-67
2023/04/05 11:50:20;;;;;;;;;;;7.10;99.90;;;;;;5022077;28;19921;-68
2023/04/05 11:53:03;;;;;;;;;;;7.10;99.90;;;;;;5020565;28;20010;-67
2023/04/05 11:55:29;;;;;;;;;;;7.10;99.90;;;;;;5022807;28;19988;-68
2023/04/05 11:57:56;;;;;;;;;;;7.40;99.90;;;;;;5021572;28;19967;-68
2023/04/05 12:00:22;;;;;;;;;;;7.70;99.90;;;;;;5022791;28;19921;-67
2023/04/05 12:02:50;;;;;;;;;;;8.00;99.90;;;;;;5023248;28;19948;-68
2023/04/05 12:05:17;;;;;;;;;;;8.10;99.30;;;;;;5022881;28;19949;-68
2023/04/05 12:07:44;;;;;;;;;;;8.30;99.90;;;;;;5022035;28;20292;-68
2023/04/05 12:10:14;;;;;;;;;;;8.70;99.90;;;;;;5023737;28;20125;-68
2023/04/05 12:12:42;;;;;;;;;;;9.10;99.90;;;;;;5023628;28;20173;-68
2023/04/05 12:15:12;;;;;;;;;;;9.40;97.90;;;;;;5023102;28;19921;-67
2023/04/05 12:17:39;;;;;;;;;;;9.50;96.90;;;;;;5026721;28;19945;-67
2023/04/05 12:20:08;;;;;;;;;;;9.70;97.50;;;;;;5027404;28;19957;-68
2023/04/05 12:22:36;;;;;;;;;;;9.60;97.30;;;;;;5027290;28;20229;-68
2023/04/05 12:25:02;;;;;;;;;;;9.70;96.40;;;;;;5026830;28;20260;-68
2023/04/05 12:27:29;;;;;;;;;;;9.80;96.60;;;;;;5026601;28;19921;-67
2023/04/05 12:30:05;;;;;;;;;;;10.00;95.30;;;;;;5025966;28;20157;-68
2023/04/05 12:32:35;;;;;;;;;;;10.10;93.10;;;;;;5026203;28;19922;-67
2023/04/05 12:35:05;;;;;;;;;;;10.50;95.60;;;;;;5024975;28;19921;-68
2023/04/05 12:37:35;;;;;;;;;;;10.80;94.60;;;;;;5026424;28;19921;-67
2023/04/05 12:40:02;;;;;;;;;;;10.80;94.00;;;;;;5027383;28;19957;-66
2023/04/05 12:42:31;;;;;;;;;;;10.90;91.80;;;;;;5027016;28;19994;-68
2023/04/05 12:45:02;;;;;;;;;;;11.00;92.40;;;;;;5026951;28;19963;-67
2023/04/05 12:47:29;;;;;;;;;;;11.10;91.20;;;;;;5026627;28;19996;-68
2023/04/05 12:49:55;;;;;;;;;;;11.10;90.60;;;;;;5026898;28;20268;-67
2023/04/05 12:52:22;;;;;;;;;;;11.30;92.00;;;;;;5022930;28;19925;-67
2023/04/05 12:54:54;;;;;;;;;;;11.50;90.80;;;;;;5026058;28;19921;-68
2023/04/05 12:57:29;;;;;;;;;;;11.50;91.80;;;;;;5026002;28;19921;-69
2023/04/05 12:59:56;;;;;;;;;;;11.60;92.30;;;;;;5026797;28;19960;-68
2023/04/05 13:02:22;;;;;;;;;;;11.80;91.80;;;;;;5026946;28;19941;-69
2023/04/05 13:04:49;;;;;;;;;;;12.10;91.00;;;;;;5026795;28;19997;-68
2023/04/05 13:07:16;;;;;;;;;;;12.50;90.90;;;;;;5025837;28;19927;-69
2023/04/05 13:09:42;;;;;;;;;;;12.60;86.20;;;;;;5024068;28;20133;-68
2023/04/05 13:12:11;;;;;;;;;;;12.80;84.80;;;;;;5026583;28;19964;-68
2023/04/05 13:14:37;;;;;;;;;;;13.00;85.70;;;;;;5026344;28;20117;-68
2023/04/05 13:17:04;;;;;;;;;;;13.30;85.30;;;;;;5026070;28;20452;-69
2023/04/05 13:19:31;;;;;;;;;;;13.20;83.50;;;;;;5026411;28;19922;-68
2023/04/05 13:21:57;;;;;;;;;;;13.20;81.40;;;;;;5026293;28;19953;-69
2023/04/05 13:24:24;;;;;;;;;;;13.20;82.90;;;;;;5026317;28;19964;-69
2023/04/05 13:26:51;;;;;;;;;;;13.20;83.40;;;;;;5024431;28;19960;-67
2023/04/05 13:29:19;;;;;;;;;;;13.30;83.10;;;;;;5026203;28;19929;-68
2023/04/05 13:31:45;;;;;;;;;;;12.80;80.40;;;;;;5024432;28;19922;-68
2023/04/05 13:34:12;;;;;;;;;;;12.80;81.60;;;;;;5025202;28;19937;-68
2023/04/05 13:36:38;;;;;;;;;;;12.90;83.40;;;;;;5025518;28;19961;-69
2023/04/05 13:39:05;;;;;;;;;;;13.10;84.70;;;;;;5025850;28;19953;-67
2023/04/05 13:41:32;;;;;;;;;;;12.90;79.60;;;;;;5026182;28;19984;-69
2023/04/05 13:43:58;;;;;;;;;;;12.50;81.80;;;;;;5026165;28;19989;-68
2023/04/05 13:46:26;;;;;;;;;;;12.00;80.70;;;;;;5025249;28;19960;-69
2023/04/05 13:48:53;;;;;;;;;;;11.60;82.40;;;;;;5025846;28;19921;-68
2023/04/05 13:51:20;;;;;;;;;;;11.20;82.50;;;;;;5025591;28;19921;-68
2023/04/05 13:53:46;;;;;;;;;;;10.70;82.30;;;;;;5025934;28;19927;-69
2023/04/05 13:56:13;;;;;;;;;;;10.40;82.90;;;;;;5024710;28;19984;-68
2023/04/05 13:58:40;;;;;;;;;;;10.10;83.70;;;;;;5025754;28;19922;-68
2023/04/05 14:01:06;;;;;;;;;;;9.90;83.60;;;;;;5025494;28;19953;-68
2023/04/05 14:03:34;;;;;;;;;;;9.60;83.90;;;;;;5025833;28;19981;-68
2023/04/05 14:06:01;;;;;;;;;;;9.40;86.50;;;;;;5024993;28;19921;-68
2023/04/05 14:08:28;;;;;;;;;;;9.20;85.40;;;;;;5025274;28;20303;-68
2023/04/05 14:10:54;;;;;;;;;;;9.20;86.40;;;;;;5044237;28;19948;-68
2023/04/05 14:13:24;;;;;;;;;;;9.10;85.50;;;;;;5043396;28;22447;-67
2023/04/05 14:15:51;;;;;;;;;;;9.00;87.10;;;;;;5043913;28;19956;-70
2023/04/05 14:18:18;;;;;;;;;;;9.00;86.50;;;;;;5044811;28;20098;-69
2023/04/05 14:20:46;;;;;;;;;;;9.00;85.30;;;;;;5045055;28;19921;-68
2023/04/05 14:23:13;;;;;;;;;;;9.00;87.20;;;;;;5045102;28;19921;-68
2023/04/05 14:25:39;;;;;;;;;;;9.20;87.20;;;;;;5044857;28;19928;-69
2023/04/05 14:28:06;;;;;;;;;;;9.50;84.60;;;;;;5044219;28;19925;-69